Epic Capri — 9HA2845 — position and weather

sailwx.info

Track history (hours):
 
Tides and Currents Weather Stations Pressure Air Temp Water Temp Dewpoint Dewpoint Depression Visibility Wind Speed Wind Dir Waves Ship Positions

Epic Capri

Last reported at 2015-Jul-31 14:31 UTC. Time now 2015-Jul-31 15:25 UTC.
Position N 38°36' W 027°01'.

Length 99 m; draft 5.6 m.

Type: Ship (hazmat cat A). MMSI: 256325000.

Date/timePositionNaut miles runAvg speedWind from/ knotsBaromVisibWave heightAir tempDewpointWater temp
2015-Jul-31 14:31N 38°36' W 027°01'8 8.7
2015-Jul-31 13:33N 38°34' W 027°11'9 9.1
2015-Jul-31 12:33N 38°32' W 027°22'9 8.7
2015-Jul-31 11:33N 38°29' W 027°33'9 8.6
2015-Jul-31 10:33N 38°29' W 027°44'9 8.9
2015-Jul-31 09:33N 38°31' W 027°55'10 9.5
2015-Jul-31 08:33N 38°33' W 028°07'10 9.8
2015-Jul-31 07:33N 38°35' W 028°19'9 8.7
2015-Jul-31 06:33N 38°35' W 028°30'6 6.2
2015-Jul-31 05:33N 38°32' W 028°37'0 0.0
2015-Jul-31 04:32N 38°32' W 028°37'0 0.0
2015-Jul-31 03:32N 38°32' W 028°37'0 0.0
2015-Jul-31 02:32N 38°32' W 028°37'0 0.0
2015-Jul-31 01:32N 38°32' W 028°37'0 0.0
2015-Jul-31 00:32N 38°32' W 028°37'0 0.0
2015-Jul-30 23:32N 38°32' W 028°37'0 0.0
2015-Jul-30 22:32N 38°32' W 028°37'0 0.0
2015-Jul-30 21:32N 38°32' W 028°37'0 0.4
2015-Jul-30 20:30N 38°32' W 028°37'0 0.0
2015-Jul-30 19:33N 38°32' W 028°37'0 0.0
2015-Jul-30 18:33N 38°32' W 028°37'0 0.1
2015-Jul-30 17:33N 38°32' W 028°37'0 0.1
2015-Jul-30 16:33N 38°32' W 028°37'0 0.0
2015-Jul-30 15:30N 38°32' W 028°37'0 0.0
2015-Jul-30 14:33N 38°32' W 028°37'0 0.1
2015-Jul-30 13:33N 38°32' W 028°37'0 0.1
2015-Jul-30 12:33N 38°32' W 028°37'0 0.0
2015-Jul-30 11:33N 38°32' W 028°37'0 0.1
2015-Jul-30 10:33N 38°32' W 028°37'0 0.1
2015-Jul-30 09:34N 38°32' W 028°37'5 5.4
2015-Jul-30 08:33N 38°35' W 028°31'9 8.7
2015-Jul-30 07:33N 38°35' W 028°20'9 9.2
2015-Jul-30 06:34N 38°33' W 028°08'9 9.2
2015-Jul-30 05:33N 38°30' W 027°57'10 9.7
2015-Jul-30 04:33N 38°28' W 027°45'9 8.7
2015-Jul-30 03:33N 38°28' W 027°34'8 8.3
2015-Jul-30 02:33N 38°27' W 027°23'8 8.3
2015-Jul-30 01:34N 38°26' W 027°12'8 8.4
2015-Jul-30 00:33N 38°25' W 027°02'8 8.4
2015-Jul-29 23:34N 38°24' W 026°51'8 7.9
2015-Jul-29 22:33N 38°22' W 026°41'8 8.1
2015-Jul-29 21:33N 38°21' W 026°31'8 8.2
2015-Jul-29 20:33N 38°20' W 026°21'8 8.2
2015-Jul-29 19:33N 38°20' W 026°10'8 7.7
2015-Jul-29 18:33N 38°19' W 026°01'8 7.6
2015-Jul-29 17:34N 38°19' W 025°51'8 7.6
2015-Jul-29 16:33N 38°18' W 025°41'7 7.3
2015-Jul-29 15:33N 38°18' W 025°32'7 6.6
2015-Jul-29 14:33N 38°18' W 025°24'6 6.2
2015-Jul-29 13:33N 38°18' W 025°16'7 6.9
2015-Jul-29 12:33N 38°18' W 025°07'7 7.1
2015-Jul-29 11:34N 38°19' W 024°58'7 7.2
2015-Jul-29 10:33N 38°19' W 024°49'7 6.7
2015-Jul-29 09:33N 38°18' W 024°40'7 6.7
2015-Jul-29 08:33N 38°18' W 024°32'7 7.0
2015-Jul-29 07:33N 38°18' W 024°23'7 7.0
2015-Jul-29 06:33N 38°17' W 024°14'7 7.4
2015-Jul-29 05:34N 38°16' W 024°05'8 7.6
2015-Jul-29 04:26N 38°16' W 023°54'39 7.9
2015-Jul-28 23:28N 38°12' W 023°04'8 8.1
2015-Jul-28 22:29N 38°11' W 022°54'8 8.2
2015-Jul-28 21:29N 38°10' W 022°44'9 8.2
2015-Jul-28 20:26N 38°10' W 022°33'369 8.6
2015-Jul-27 01:26N 37°48' W 014°45'166 9.3
2015-Jul-26 07:32N 37°50' W 011°15'9 9.0
2015-Jul-26 06:32N 37°51' W 011°04'9 8.8
2015-Jul-26 05:33N 37°51' W 010°53'9 8.7
2015-Jul-26 04:33N 37°51' W 010°42'9 8.5
2015-Jul-26 03:33N 37°52' W 010°31'8 8.4
2015-Jul-26 02:33N 37°52' W 010°21'8 8.5
2015-Jul-26 01:33N 37°52' W 010°10'11 8.4
2015-Jul-26 00:15N 37°52' W 009°56'5 7.4
2015-Jul-25 23:33N 37°52' W 009°50'8 7.5
2015-Jul-25 22:31N 37°52' W 009°40'8 7.3
2015-Jul-25 21:28N 37°52' W 009°30'7 7.4
2015-Jul-25 20:33N 37°52' W 009°21'5 5.2
2015-Jul-25 19:33N 37°53' W 009°15'4 3.7
2015-Jul-25 18:33N 37°53' W 009°10'4 4.2
2015-Jul-25 17:33N 37°52' W 009°05'7 7.0
2015-Jul-25 16:33N 37°54' W 008°57'4 3.9
2015-Jul-25 15:33N 37°57' W 008°53'0 0.0
2015-Jul-25 14:33N 37°57' W 008°53'0 0.0
2015-Jul-25 13:33N 37°57' W 008°53'0 0.0
2015-Jul-25 12:33N 37°57' W 008°53'0 0.0
2015-Jul-25 11:33N 37°57' W 008°53'0 0.0
2015-Jul-25 10:33N 37°57' W 008°53'0 0.0
2015-Jul-25 09:33N 37°57' W 008°53'0 0.0
2015-Jul-25 08:33N 37°57' W 008°53'0 0.0
2015-Jul-25 07:33N 37°57' W 008°53'0 0.0
2015-Jul-25 06:33N 37°57' W 008°53'0 0.0
2015-Jul-25 05:33N 37°57' W 008°53'0 0.0
2015-Jul-25 04:33N 37°57' W 008°53'0 0.0
2015-Jul-25 03:33N 37°57' W 008°53'0 0.0
2015-Jul-25 02:33N 37°57' W 008°53'0 0.0
2015-Jul-25 01:33N 37°57' W 008°53'0 0.0
2015-Jul-25 00:33N 37°57' W 008°53'0 0.0
2015-Jul-24 23:33N 37°57' W 008°53'1 0.6
2015-Jul-24 22:33N 37°56' W 008°53'2 2.0
2015-Jul-24 21:31N 37°54' W 008°53'0 0.0
2015-Jul-24 20:31N 37°54' W 008°53'0 0.0
2015-Jul-24 19:31N 37°54' W 008°53'0 0.0
2015-Jul-24 18:31N 37°54' W 008°53'0 0.0
2015-Jul-24 17:31N 37°54' W 008°53'0 0.0
2015-Jul-24 16:31N 37°54' W 008°53'0 0.0
2015-Jul-24 15:31N 37°54' W 008°53'0 0.0
2015-Jul-24 14:31N 37°54' W 008°53'0 0.0
2015-Jul-24 13:31N 37°54' W 008°53'0 0.0
2015-Jul-24 12:31N 37°54' W 008°53'0 0.0
2015-Jul-24 11:31N 37°55' W 008°53'0 0.0
2015-Jul-24 10:31N 37°55' W 008°53'0 0.0
2015-Jul-24 09:31N 37°54' W 008°53'0 0.0
2015-Jul-24 08:31N 37°54' W 008°53'0 0.0
2015-Jul-24 07:31N 37°55' W 008°53'0 0.0
2015-Jul-24 06:31N 37°54' W 008°53'0 0.0
2015-Jul-24 05:31N 37°54' W 008°53'0 0.0
2015-Jul-24 04:31N 37°54' W 008°53'0 0.0
2015-Jul-24 03:31N 37°54' W 008°53'0 0.0
2015-Jul-24 02:28N 37°54' W 008°53'0 0.0
2015-Jul-24 01:31N 37°54' W 008°53'0 0.0
2015-Jul-24 00:31N 37°54' W 008°53'0 0.0
2015-Jul-23 23:31N 37°54' W 008°53'0 0.0
2015-Jul-23 22:31N 37°54' W 008°53'0 0.0
2015-Jul-23 21:31N 37°54' W 008°53'0 0.0
2015-Jul-23 20:31N 37°54' W 008°53'0 0.0
2015-Jul-23 19:31N 37°54' W 008°53'0 0.0
2015-Jul-23 18:31N 37°54' W 008°53'0 0.0
2015-Jul-23 17:31N 37°54' W 008°53'0 0.0
2015-Jul-23 16:31N 37°54' W 008°53'0 0.0
2015-Jul-23 15:31N 37°54' W 008°53'0 0.0
2015-Jul-23 14:31N 37°54' W 008°53'0 0.0
2015-Jul-23 13:31N 37°54' W 008°53'0 0.0
2015-Jul-23 12:31N 37°54' W 008°53'0 0.0
2015-Jul-23 11:31N 37°54' W 008°53'0 0.0
2015-Jul-23 10:31N 37°54' W 008°53'0 0.0
2015-Jul-23 09:31N 37°54' W 008°53'0 0.0
2015-Jul-23 08:31N 37°54' W 008°53'0 0.0
2015-Jul-23 07:31N 37°54' W 008°53'0 0.0
2015-Jul-23 06:31N 37°54' W 008°53'0 0.0
2015-Jul-23 05:31N 37°54' W 008°53'0 0.0
2015-Jul-23 04:31N 37°54' W 008°53'0 0.0
2015-Jul-23 03:31N 37°54' W 008°53'0 0.0
2015-Jul-23 02:31N 37°54' W 008°53'0 0.0
2015-Jul-23 01:31N 37°54' W 008°53'0 0.0
2015-Jul-23 00:31N 37°54' W 008°53'0 0.0
2015-Jul-22 23:31N 37°54' W 008°53'0 0.0
2015-Jul-22 22:28N 37°54' W 008°53'0 0.0
2015-Jul-22 21:31N 37°54' W 008°53'0 0.0
2015-Jul-22 20:31N 37°54' W 008°53'0 0.0
2015-Jul-22 19:31N 37°54' W 008°53'0 0.0
2015-Jul-22 18:31N 37°54' W 008°53'0 0.0
2015-Jul-22 17:31N 37°54' W 008°53'0 0.0
2015-Jul-22 16:31N 37°54' W 008°53'0 0.0
2015-Jul-22 15:31N 37°54' W 008°53'0 0.0
2015-Jul-22 14:31N 37°54' W 008°53'0 0.0
2015-Jul-22 13:31N 37°54' W 008°53'0 0.0
2015-Jul-22 12:31N 37°54' W 008°53'0 0.0
2015-Jul-22 11:31N 37°54' W 008°53'0 0.0
2015-Jul-22 10:31N 37°54' W 008°53'0 0.0
2015-Jul-22 09:31N 37°54' W 008°53'0 0.0
2015-Jul-22 08:31N 37°54' W 008°53'0 0.0
2015-Jul-22 07:28N 37°54' W 008°53'0 0.0
2015-Jul-22 06:31N 37°54' W 008°53'0 0.0
2015-Jul-22 05:31N 37°54' W 008°53'0 0.0
2015-Jul-22 04:31N 37°54' W 008°53'0 0.0
2015-Jul-22 03:31N 37°54' W 008°53'0 0.0
2015-Jul-22 02:31N 37°54' W 008°53'0 0.0
2015-Jul-22 01:31N 37°54' W 008°53'0 0.0
2015-Jul-22 00:31N 37°54' W 008°53'0 0.0
2015-Jul-21 23:31N 37°54' W 008°53'0 0.0
2015-Jul-21 22:31N 37°54' W 008°53'0 0.0
2015-Jul-21 21:31N 37°54' W 008°53'0 0.0
2015-Jul-21 20:31N 37°54' W 008°53'0 0.0
2015-Jul-21 19:31N 37°54' W 008°53'0 0.0
2015-Jul-21 18:31N 37°54' W 008°53'0 0.0
2015-Jul-21 17:31N 37°54' W 008°53'0 0.0
2015-Jul-21 16:31N 37°54' W 008°53'0 0.0
2015-Jul-21 15:31N 37°54' W 008°53'0 0.0
2015-Jul-21 14:31N 37°54' W 008°53'  
Track history (hours):
 
Tides and Currents Weather Stations Pressure Air Temp Water Temp Dewpoint Dewpoint Depression Visibility Wind Speed Wind Dir Waves Ship Positions

Epic Capri

Last reported at 2015-Jul-31 14:31 UTC. Time now 2015-Jul-31 15:25 UTC.
Position N 38°36' W 027°01'.

Length 99 m; draft 5.6 m.

Type: Ship (hazmat cat A). MMSI: 256325000.

Date/timePositionNaut miles runAvg speedWind from/ knotsBaromVisibWave heightAir tempDewpointWater temp
2015-Jul-31 14:31N 38°36' W 027°01'8 8.7
2015-Jul-31 13:33N 38°34' W 027°11'9 9.1
2015-Jul-31 12:33N 38°32' W 027°22'9 8.7
2015-Jul-31 11:33N 38°29' W 027°33'9 8.6
2015-Jul-31 10:33N 38°29' W 027°44'9 8.9
2015-Jul-31 09:33N 38°31' W 027°55'10 9.5
2015-Jul-31 08:33N 38°33' W 028°07'10 9.8
2015-Jul-31 07:33N 38°35' W 028°19'9 8.7
2015-Jul-31 06:33N 38°35' W 028°30'6 6.2
2015-Jul-31 05:33N 38°32' W 028°37'0 0.0
2015-Jul-31 04:32N 38°32' W 028°37'0 0.0
2015-Jul-31 03:32N 38°32' W 028°37'0 0.0
2015-Jul-31 02:32N 38°32' W 028°37'0 0.0
2015-Jul-31 01:32N 38°32' W 028°37'0 0.0
2015-Jul-31 00:32N 38°32' W 028°37'0 0.0
2015-Jul-30 23:32N 38°32' W 028°37'0 0.0
2015-Jul-30 22:32N 38°32' W 028°37'0 0.0
2015-Jul-30 21:32N 38°32' W 028°37'0 0.4
2015-Jul-30 20:30N 38°32' W 028°37'0 0.0
2015-Jul-30 19:33N 38°32' W 028°37'0 0.0
2015-Jul-30 18:33N 38°32' W 028°37'0 0.1
2015-Jul-30 17:33N 38°32' W 028°37'0 0.1
2015-Jul-30 16:33N 38°32' W 028°37'0 0.0
2015-Jul-30 15:30N 38°32' W 028°37'0 0.0
2015-Jul-30 14:33N 38°32' W 028°37'0 0.1
2015-Jul-30 13:33N 38°32' W 028°37'0 0.1
2015-Jul-30 12:33N 38°32' W 028°37'0 0.0
2015-Jul-30 11:33N 38°32' W 028°37'0 0.1
2015-Jul-30 10:33N 38°32' W 028°37'0 0.1
2015-Jul-30 09:34N 38°32' W 028°37'5 5.4
2015-Jul-30 08:33N 38°35' W 028°31'9 8.7
2015-Jul-30 07:33N 38°35' W 028°20'9 9.2
2015-Jul-30 06:34N 38°33' W 028°08'9 9.2
2015-Jul-30 05:33N 38°30' W 027°57'10 9.7
2015-Jul-30 04:33N 38°28' W 027°45'9 8.7
2015-Jul-30 03:33N 38°28' W 027°34'8 8.3
2015-Jul-30 02:33N 38°27' W 027°23'8 8.3
2015-Jul-30 01:34N 38°26' W 027°12'8 8.4
2015-Jul-30 00:33N 38°25' W 027°02'8 8.4
2015-Jul-29 23:34N 38°24' W 026°51'8 7.9
2015-Jul-29 22:33N 38°22' W 026°41'8 8.1
2015-Jul-29 21:33N 38°21' W 026°31'8 8.2
2015-Jul-29 20:33N 38°20' W 026°21'8 8.2
2015-Jul-29 19:33N 38°20' W 026°10'8 7.7
2015-Jul-29 18:33N 38°19' W 026°01'8 7.6
2015-Jul-29 17:34N 38°19' W 025°51'8 7.6
2015-Jul-29 16:33N 38°18' W 025°41'7 7.3
2015-Jul-29 15:33N 38°18' W 025°32'7 6.6
2015-Jul-29 14:33N 38°18' W 025°24'6 6.2
2015-Jul-29 13:33N 38°18' W 025°16'7 6.9
2015-Jul-29 12:33N 38°18' W 025°07'7 7.1
2015-Jul-29 11:34N 38°19' W 024°58'7 7.2
2015-Jul-29 10:33N 38°19' W 024°49'7 6.7
2015-Jul-29 09:33N 38°18' W 024°40'7 6.7
2015-Jul-29 08:33N 38°18' W 024°32'7 7.0
2015-Jul-29 07:33N 38°18' W 024°23'7 7.0
2015-Jul-29 06:33N 38°17' W 024°14'7 7.4
2015-Jul-29 05:34N 38°16' W 024°05'8 7.6
2015-Jul-29 04:26N 38°16' W 023°54'39 7.9
2015-Jul-28 23:28N 38°12' W 023°04'8 8.1
2015-Jul-28 22:29N 38°11' W 022°54'8 8.2
2015-Jul-28 21:29N 38°10' W 022°44'9 8.2
2015-Jul-28 20:26N 38°10' W 022°33'369 8.6
2015-Jul-27 01:26N 37°48' W 014°45'166 9.3
2015-Jul-26 07:32N 37°50' W 011°15'9 9.0
2015-Jul-26 06:32N 37°51' W 011°04'9 8.8
2015-Jul-26 05:33N 37°51' W 010°53'9 8.7
2015-Jul-26 04:33N 37°51' W 010°42'9 8.5
2015-Jul-26 03:33N 37°52' W 010°31'8 8.4
2015-Jul-26 02:33N 37°52' W 010°21'8 8.5
2015-Jul-26 01:33N 37°52' W 010°10'11 8.4
2015-Jul-26 00:15N 37°52' W 009°56'5 7.4
2015-Jul-25 23:33N 37°52' W 009°50'8 7.5
2015-Jul-25 22:31N 37°52' W 009°40'8 7.3
2015-Jul-25 21:28N 37°52' W 009°30'7 7.4
2015-Jul-25 20:33N 37°52' W 009°21'5 5.2
2015-Jul-25 19:33N 37°53' W 009°15'4 3.7
2015-Jul-25 18:33N 37°53' W 009°10'4 4.2
2015-Jul-25 17:33N 37°52' W 009°05'7 7.0
2015-Jul-25 16:33N 37°54' W 008°57'4 3.9
2015-Jul-25 15:33N 37°57' W 008°53'0 0.0
2015-Jul-25 14:33N 37°57' W 008°53'0 0.0
2015-Jul-25 13:33N 37°57' W 008°53'0 0.0
2015-Jul-25 12:33N 37°57' W 008°53'0 0.0
2015-Jul-25 11:33N 37°57' W 008°53'0 0.0
2015-Jul-25 10:33N 37°57' W 008°53'0 0.0
2015-Jul-25 09:33N 37°57' W 008°53'0 0.0
2015-Jul-25 08:33N 37°57' W 008°53'0 0.0
2015-Jul-25 07:33N 37°57' W 008°53'0 0.0
2015-Jul-25 06:33N 37°57' W 008°53'0 0.0
2015-Jul-25 05:33N 37°57' W 008°53'0 0.0
2015-Jul-25 04:33N 37°57' W 008°53'0 0.0
2015-Jul-25 03:33N 37°57' W 008°53'0 0.0
2015-Jul-25 02:33N 37°57' W 008°53'0 0.0
2015-Jul-25 01:33N 37°57' W 008°53'0 0.0
2015-Jul-25 00:33N 37°57' W 008°53'0 0.0
2015-Jul-24 23:33N 37°57' W 008°53'1 0.6
2015-Jul-24 22:33N 37°56' W 008°53'2 2.0
2015-Jul-24 21:31N 37°54' W 008°53'0 0.0
2015-Jul-24 20:31N 37°54' W 008°53'0 0.0
2015-Jul-24 19:31N 37°54' W 008°53'0 0.0
2015-Jul-24 18:31N 37°54' W 008°53'0 0.0
2015-Jul-24 17:31N 37°54' W 008°53'0 0.0
2015-Jul-24 16:31N 37°54' W 008°53'0 0.0
2015-Jul-24 15:31N 37°54' W 008°53'0 0.0
2015-Jul-24 14:31N 37°54' W 008°53'0 0.0
2015-Jul-24 13:31N 37°54' W 008°53'0 0.0
2015-Jul-24 12:31N 37°54' W 008°53'0 0.0
2015-Jul-24 11:31N 37°55' W 008°53'0 0.0
2015-Jul-24 10:31N 37°55' W 008°53'0 0.0
2015-Jul-24 09:31N 37°54' W 008°53'0 0.0
2015-Jul-24 08:31N 37°54' W 008°53'0 0.0
2015-Jul-24 07:31N 37°55' W 008°53'0 0.0
2015-Jul-24 06:31N 37°54' W 008°53'0 0.0
2015-Jul-24 05:31N 37°54' W 008°53'0 0.0
2015-Jul-24 04:31N 37°54' W 008°53'0 0.0
2015-Jul-24 03:31N 37°54' W 008°53'0 0.0
2015-Jul-24 02:28N 37°54' W 008°53'0 0.0
2015-Jul-24 01:31N 37°54' W 008°53'0 0.0
2015-Jul-24 00:31N 37°54' W 008°53'0 0.0
2015-Jul-23 23:31N 37°54' W 008°53'0 0.0
2015-Jul-23 22:31N 37°54' W 008°53'0 0.0
2015-Jul-23 21:31N 37°54' W 008°53'0 0.0
2015-Jul-23 20:31N 37°54' W 008°53'0 0.0
2015-Jul-23 19:31N 37°54' W 008°53'0 0.0
2015-Jul-23 18:31N 37°54' W 008°53'0 0.0
2015-Jul-23 17:31N 37°54' W 008°53'0 0.0
2015-Jul-23 16:31N 37°54' W 008°53'0 0.0
2015-Jul-23 15:31N 37°54' W 008°53'0 0.0
2015-Jul-23 14:31N 37°54' W 008°53'0 0.0
2015-Jul-23 13:31N 37°54' W 008°53'0 0.0
2015-Jul-23 12:31N 37°54' W 008°53'0 0.0
2015-Jul-23 11:31N 37°54' W 008°53'0 0.0
2015-Jul-23 10:31N 37°54' W 008°53'0 0.0
2015-Jul-23 09:31N 37°54' W 008°53'0 0.0
2015-Jul-23 08:31N 37°54' W 008°53'0 0.0
2015-Jul-23 07:31N 37°54' W 008°53'0 0.0
2015-Jul-23 06:31N 37°54' W 008°53'0 0.0
2015-Jul-23 05:31N 37°54' W 008°53'0 0.0
2015-Jul-23 04:31N 37°54' W 008°53'0 0.0
2015-Jul-23 03:31N 37°54' W 008°53'0 0.0
2015-Jul-23 02:31N 37°54' W 008°53'0 0.0
2015-Jul-23 01:31N 37°54' W 008°53'0 0.0
2015-Jul-23 00:31N 37°54' W 008°53'0 0.0
2015-Jul-22 23:31N 37°54' W 008°53'0 0.0
2015-Jul-22 22:28N 37°54' W 008°53'0 0.0
2015-Jul-22 21:31N 37°54' W 008°53'0 0.0
2015-Jul-22 20:31N 37°54' W 008°53'0 0.0
2015-Jul-22 19:31N 37°54' W 008°53'0 0.0
2015-Jul-22 18:31N 37°54' W 008°53'0 0.0
2015-Jul-22 17:31N 37°54' W 008°53'0 0.0
2015-Jul-22 16:31N 37°54' W 008°53'0 0.0
2015-Jul-22 15:31N 37°54' W 008°53'0 0.0
2015-Jul-22 14:31N 37°54' W 008°53'0 0.0
2015-Jul-22 13:31N 37°54' W 008°53'0 0.0
2015-Jul-22 12:31N 37°54' W 008°53'0 0.0
2015-Jul-22 11:31N 37°54' W 008°53'0 0.0
2015-Jul-22 10:31N 37°54' W 008°53'0 0.0
2015-Jul-22 09:31N 37°54' W 008°53'0 0.0
2015-Jul-22 08:31N 37°54' W 008°53'0 0.0
2015-Jul-22 07:28N 37°54' W 008°53'0 0.0
2015-Jul-22 06:31N 37°54' W 008°53'0 0.0
2015-Jul-22 05:31N 37°54' W 008°53'0 0.0
2015-Jul-22 04:31N 37°54' W 008°53'0 0.0
2015-Jul-22 03:31N 37°54' W 008°53'0 0.0
2015-Jul-22 02:31N 37°54' W 008°53'0 0.0
2015-Jul-22 01:31N 37°54' W 008°53'0 0.0
2015-Jul-22 00:31N 37°54' W 008°53'0 0.0
2015-Jul-21 23:31N 37°54' W 008°53'0 0.0
2015-Jul-21 22:31N 37°54' W 008°53'0 0.0
2015-Jul-21 21:31N 37°54' W 008°53'0 0.0
2015-Jul-21 20:31N 37°54' W 008°53'0 0.0
2015-Jul-21 19:31N 37°54' W 008°53'0 0.0
2015-Jul-21 18:31N 37°54' W 008°53'0 0.0
2015-Jul-21 17:31N 37°54' W 008°53'0 0.0
2015-Jul-21 16:31N 37°54' W 008°53'0 0.0
2015-Jul-21 15:31N 37°54' W 008°53'0 0.0
2015-Jul-21 14:31N 37°54' W 008°53'  

Dump ship's entire track history